Terminal Aerodrome Forecast
Issued by NWS Central Illinois

Home | Current Version | Previous Version | Text Only | Print | Product List | Glossary On
Versions: 1 2 3 4 5 6 7 8 9 10 11 12 13 14 15 16 17 18 19 20 21 22 23 24 25 26 27
085
FTUS43 KILX 212335
TAFSPI
TAF
KSPI 212335Z 2200/2224 00000KT P6SM BKN030
     FM220600 VRB03KT 4SM BR SCT040
     FM220900 21004KT 1 1/2SM BR FEW010
     FM221500 20005KT P6SM FEW008
     FM221800 20009KT P6SM FEW100=

USA.gov is the U.S. government's official web portal to all federal, state and local government web resources and services.